sensor_id;sensor_type;location;lat;lon;timestamp;P1;durP1;ratioP1;P2;durP2;ratioP2
9526;SDS011;4802;51.494;6.770;2023-05-01T00:02:35;5.53;;;2.50;;
9526;SDS011;4802;51.494;6.770;2023-05-01T00:05:09;1.90;;;1.77;;
9526;SDS011;4802;51.494;6.770;2023-05-01T00:07:39;1.70;;;1.60;;
9526;SDS011;4802;51.494;6.770;2023-05-01T00:10:10;1.87;;;1.37;;
9526;SDS011;4802;51.494;6.770;2023-05-01T00:12:41;1.80;;;1.70;;
9526;SDS011;4802;51.494;6.770;2023-05-01T00:15:11;4.10;;;1.90;;
9526;SDS011;4802;51.494;6.770;2023-05-01T00:17:45;1.83;;;1.70;;
9526;SDS011;4802;51.494;6.770;2023-05-01T00:20:17;2.20;;;1.33;;
9526;SDS011;4802;51.494;6.770;2023-05-01T00:22:47;2.20;;;2.10;;
9526;SDS011;4802;51.494;6.770;2023-05-01T00:25:17;2.00;;;1.67;;
9526;SDS011;4802;51.494;6.770;2023-05-01T00:27:46;2.10;;;1.70;;
9526;SDS011;4802;51.494;6.770;2023-05-01T00:30:15;1.83;;;1.73;;
9526;SDS011;4802;51.494;6.770;2023-05-01T00:32:45;5.80;;;2.60;;
9526;SDS011;4802;51.494;6.770;2023-05-01T00:35:15;7.37;;;1.80;;
9526;SDS011;4802;51.494;6.770;2023-05-01T00:37:44;1.70;;;1.57;;
9526;SDS011;4802;51.494;6.770;2023-05-01T00:40:14;8.57;;;3.27;;
9526;SDS011;4802;51.494;6.770;2023-05-01T00:42:43;2.03;;;1.83;;
9526;SDS011;4802;51.494;6.770;2023-05-01T00:45:13;2.90;;;1.93;;
9526;SDS011;4802;51.494;6.770;2023-05-01T00:47:43;2.10;;;2.00;;
9526;SDS011;4802;51.494;6.770;2023-05-01T00:50:15;4.90;;;2.50;;
9526;SDS011;4802;51.494;6.770;2023-05-01T00:52:45;1.67;;;1.57;;
9526;SDS011;4802;51.494;6.770;2023-05-01T00:55:14;3.47;;;2.33;;
9526;SDS011;4802;51.494;6.770;2023-05-01T00:57:44;1.93;;;1.30;;
9526;SDS011;4802;51.494;6.770;2023-05-01T01:00:13;1.47;;;1.37;;
9526;SDS011;4802;51.494;6.770;2023-05-01T01:02:45;2.63;;;2.43;;
9526;SDS011;4802;51.494;6.770;2023-05-01T01:05:16;2.10;;;2.00;;
9526;SDS011;4802;51.494;6.770;2023-05-01T01:07:48;5.50;;;2.50;;
9526;SDS011;4802;51.494;6.770;2023-05-01T01:10:22;3.50;;;3.03;;
9526;SDS011;4802;51.494;6.770;2023-05-01T01:12:58;3.23;;;2.33;;
9526;SDS011;4802;51.494;6.770;2023-05-01T01:15:32;1.53;;;1.40;;
9526;SDS011;4802;51.494;6.770;2023-05-01T01:18:06;2.73;;;2.50;;
9526;SDS011;4802;51.494;6.770;2023-05-01T01:20:38;1.97;;;1.87;;
9526;SDS011;4802;51.494;6.770;2023-05-01T01:23:19;2.97;;;2.77;;
9526;SDS011;4802;51.494;6.770;2023-05-01T01:31:38;2.00;;;1.90;;
9526;SDS011;4802;51.494;6.770;2023-05-01T01:34:17;2.10;;;1.90;;
9526;SDS011;4802;51.494;6.770;2023-05-01T01:36:48;2.17;;;1.97;;
9526;SDS011;4802;51.494;6.770;2023-05-01T01:39:22;1.60;;;1.50;;
9526;SDS011;4802;51.494;6.770;2023-05-01T01:41:52;2.70;;;2.50;;
9526;SDS011;4802;51.494;6.770;2023-05-01T01:44:29;5.60;;;1.83;;
9526;SDS011;4802;51.494;6.770;2023-05-01T01:47:04;2.90;;;2.70;;
9526;SDS011;4802;51.494;6.770;2023-05-01T01:49:37;5.57;;;2.77;;
9526;SDS011;4802;51.494;6.770;2023-05-01T01:52:11;2.83;;;2.60;;
9526;SDS011;4802;51.494;6.770;2023-05-01T01:54:42;2.90;;;2.43;;
9526;SDS011;4802;51.494;6.770;2023-05-01T01:57:13;2.90;;;2.63;;
9526;SDS011;4802;51.494;6.770;2023-05-01T01:59:43;2.00;;;1.90;;
9526;SDS011;4802;51.494;6.770;2023-05-01T02:02:15;3.10;;;2.83;;
9526;SDS011;4802;51.494;6.770;2023-05-01T02:04:48;7.57;;;1.83;;
9526;SDS011;4802;51.494;6.770;2023-05-01T02:07:18;2.30;;;2.10;;
9526;SDS011;4802;51.494;6.770;2023-05-01T02:09:49;2.60;;;2.50;;
9526;SDS011;4802;51.494;6.770;2023-05-01T02:12:21;3.37;;;2.70;;
9526;SDS011;4802;51.494;6.770;2023-05-01T02:14:54;1.93;;;1.83;;
9526;SDS011;4802;51.494;6.770;2023-05-01T02:17:27;3.97;;;1.83;;
9526;SDS011;4802;51.494;6.770;2023-05-01T02:19:58;2.03;;;1.93;;
9526;SDS011;4802;51.494;6.770;2023-05-01T02:22:27;2.50;;;2.30;;
9526;SDS011;4802;51.494;6.770;2023-05-01T02:24:58;4.33;;;2.20;;
9526;SDS011;4802;51.494;6.770;2023-05-01T02:27:29;2.97;;;2.87;;
9526;SDS011;4802;51.494;6.770;2023-05-01T02:29:59;6.87;;;3.40;;
9526;SDS011;4802;51.494;6.770;2023-05-01T02:32:28;2.33;;;2.23;;
9526;SDS011;4802;51.494;6.770;2023-05-01T02:35:00;3.70;;;2.20;;
9526;SDS011;4802;51.494;6.770;2023-05-01T02:37:29;1.87;;;1.77;;
9526;SDS011;4802;51.494;6.770;2023-05-01T02:39:59;2.30;;;2.20;;
9526;SDS011;4802;51.494;6.770;2023-05-01T02:42:28;4.50;;;2.00;;
9526;SDS011;4802;51.494;6.770;2023-05-01T02:44:59;2.20;;;1.70;;
9526;SDS011;4802;51.494;6.770;2023-05-01T02:47:30;5.03;;;3.17;;
9526;SDS011;4802;51.494;6.770;2023-05-01T02:50:02;1.73;;;1.63;;
9526;SDS011;4802;51.494;6.770;2023-05-01T02:52:33;5.13;;;2.97;;
9526;SDS011;4802;51.494;6.770;2023-05-01T02:55:02;9.40;;;3.43;;
9526;SDS011;4802;51.494;6.770;2023-05-01T02:57:32;1.50;;;1.40;;
9526;SDS011;4802;51.494;6.770;2023-05-01T03:00:01;5.20;;;2.70;;
9526;SDS011;4802;51.494;6.770;2023-05-01T03:02:35;7.27;;;2.30;;
9526;SDS011;4802;51.494;6.770;2023-05-01T03:05:07;2.63;;;2.50;;
9526;SDS011;4802;51.494;6.770;2023-05-01T03:07:36;2.20;;;2.00;;
9526;SDS011;4802;51.494;6.770;2023-05-01T03:10:06;2.60;;;2.43;;
9526;SDS011;4802;51.494;6.770;2023-05-01T03:12:35;3.00;;;1.93;;
9526;SDS011;4802;51.494;6.770;2023-05-01T03:15:04;2.70;;;2.50;;
9526;SDS011;4802;51.494;6.770;2023-05-01T03:17:34;5.90;;;2.63;;
9526;SDS011;4802;51.494;6.770;2023-05-01T03:20:04;5.00;;;2.80;;
9526;SDS011;4802;51.494;6.770;2023-05-01T03:22:36;6.63;;;2.50;;
9526;SDS011;4802;51.494;6.770;2023-05-01T03:25:05;2.80;;;2.60;;
9526;SDS011;4802;51.494;6.770;2023-05-01T03:27:38;2.40;;;1.77;;
9526;SDS011;4802;51.494;6.770;2023-05-01T03:30:08;12.07;;;2.57;;
9526;SDS011;4802;51.494;6.770;2023-05-01T03:32:37;2.20;;;2.10;;
9526;SDS011;4802;51.494;6.770;2023-05-01T03:35:07;2.77;;;2.30;;
9526;SDS011;4802;51.494;6.770;2023-05-01T03:37:40;1.90;;;1.80;;
9526;SDS011;4802;51.494;6.770;2023-05-01T03:40:10;2.60;;;2.40;;
9526;SDS011;4802;51.494;6.770;2023-05-01T03:42:39;3.57;;;2.40;;
9526;SDS011;4802;51.494;6.770;2023-05-01T03:45:08;2.87;;;2.67;;
9526;SDS011;4802;51.494;6.770;2023-05-01T03:47:37;1.87;;;1.80;;
9526;SDS011;4802;51.494;6.770;2023-05-01T03:50:08;3.93;;;2.67;;
9526;SDS011;4802;51.494;6.770;2023-05-01T03:52:37;1.80;;;1.80;;
9526;SDS011;4802;51.494;6.770;2023-05-01T03:55:08;4.27;;;3.87;;
9526;SDS011;4802;51.494;6.770;2023-05-01T03:57:37;2.33;;;2.13;;
9526;SDS011;4802;51.494;6.770;2023-05-01T04:00:08;2.97;;;2.77;;
9526;SDS011;4802;51.494;6.770;2023-05-01T04:02:37;3.63;;;3.37;;
9526;SDS011;4802;51.494;6.770;2023-05-01T04:05:06;2.77;;;2.57;;
9526;SDS011;4802;51.494;6.770;2023-05-01T04:07:37;3.30;;;3.10;;
9526;SDS011;4802;51.494;6.770;2023-05-01T04:10:09;2.37;;;2.27;;
9526;SDS011;4802;51.494;6.770;2023-05-01T04:12:39;3.67;;;2.73;;
9526;SDS011;4802;51.494;6.770;2023-05-01T04:15:09;2.57;;;2.40;;
9526;SDS011;4802;51.494;6.770;2023-05-01T04:17:40;3.70;;;3.20;;
9526;SDS011;4802;51.494;6.770;2023-05-01T04:20:10;1.83;;;1.73;;
9526;SDS011;4802;51.494;6.770;2023-05-01T04:22:43;5.97;;;2.13;;
9526;SDS011;4802;51.494;6.770;2023-05-01T04:25:14;2.57;;;2.43;;
9526;SDS011;4802;51.494;6.770;2023-05-01T04:27:43;4.87;;;2.43;;
9526;SDS011;4802;51.494;6.770;2023-05-01T04:30:12;2.27;;;2.17;;
9526;SDS011;4802;51.494;6.770;2023-05-01T04:32:42;7.97;;;2.80;;
9526;SDS011;4802;51.494;6.770;2023-05-01T04:35:12;2.70;;;2.47;;
9526;SDS011;4802;51.494;6.770;2023-05-01T04:37:40;3.90;;;3.53;;
9526;SDS011;4802;51.494;6.770;2023-05-01T04:40:11;1.93;;;1.93;;
9526;SDS011;4802;51.494;6.770;2023-05-01T04:42:43;1.80;;;1.70;;
9526;SDS011;4802;51.494;6.770;2023-05-01T04:45:13;3.63;;;2.70;;
9526;SDS011;4802;51.494;6.770;2023-05-01T04:47:43;4.07;;;2.57;;
9526;SDS011;4802;51.494;6.770;2023-05-01T04:50:12;2.83;;;2.53;;
9526;SDS011;4802;51.494;6.770;2023-05-01T04:52:49;5.47;;;3.03;;
9526;SDS011;4802;51.494;6.770;2023-05-01T04:55:18;4.00;;;3.30;;
9526;SDS011;4802;51.494;6.770;2023-05-01T04:57:48;3.37;;;3.13;;
9526;SDS011;4802;51.494;6.770;2023-05-01T05:00:18;2.30;;;2.20;;
9526;SDS011;4802;51.494;6.770;2023-05-01T05:02:47;4.33;;;3.00;;
9526;SDS011;4802;51.494;6.770;2023-05-01T05:05:16;4.80;;;2.30;;
9526;SDS011;4802;51.494;6.770;2023-05-01T05:07:45;5.17;;;3.47;;
9526;SDS011;4802;51.494;6.770;2023-05-01T05:10:16;3.43;;;2.27;;
9526;SDS011;4802;51.494;6.770;2023-05-01T05:12:48;1.97;;;1.87;;
9526;SDS011;4802;51.494;6.770;2023-05-01T05:15:17;5.60;;;1.87;;
9526;SDS011;4802;51.494;6.770;2023-05-01T05:17:46;2.90;;;2.47;;
9526;SDS011;4802;51.494;6.770;2023-05-01T05:20:15;1.83;;;1.80;;
9526;SDS011;4802;51.494;6.770;2023-05-01T05:22:44;4.00;;;3.27;;
9526;SDS011;4802;51.494;6.770;2023-05-01T05:25:13;3.23;;;2.97;;
9526;SDS011;4802;51.494;6.770;2023-05-01T05:27:44;4.30;;;2.30;;
9526;SDS011;4802;51.494;6.770;2023-05-01T05:30:15;18.73;;;3.50;;
9526;SDS011;4802;51.494;6.770;2023-05-01T05:32:45;5.03;;;2.40;;
9526;SDS011;4802;51.494;6.770;2023-05-01T05:35:15;4.37;;;3.30;;
9526;SDS011;4802;51.494;6.770;2023-05-01T05:37:44;13.63;;;3.90;;
9526;SDS011;4802;51.494;6.770;2023-05-01T05:40:13;7.67;;;3.93;;
9526;SDS011;4802;51.494;6.770;2023-05-01T05:42:42;3.90;;;3.50;;
9526;SDS011;4802;51.494;6.770;2023-05-01T05:45:11;6.80;;;2.80;;
9526;SDS011;4802;51.494;6.770;2023-05-01T05:47:43;8.33;;;3.17;;
9526;SDS011;4802;51.494;6.770;2023-05-01T05:50:13;13.93;;;3.13;;
9526;SDS011;4802;51.494;6.770;2023-05-01T05:52:44;2.90;;;2.67;;
9526;SDS011;4802;51.494;6.770;2023-05-01T05:55:16;4.20;;;3.80;;
9526;SDS011;4802;51.494;6.770;2023-05-01T05:57:46;5.07;;;2.80;;
9526;SDS011;4802;51.494;6.770;2023-05-01T06:00:15;3.23;;;2.00;;
9526;SDS011;4802;51.494;6.770;2023-05-01T06:02:48;2.67;;;2.47;;
9526;SDS011;4802;51.494;6.770;2023-05-01T06:05:18;2.30;;;2.10;;
9526;SDS011;4802;51.494;6.770;2023-05-01T06:07:47;2.30;;;2.20;;
9526;SDS011;4802;51.494;6.770;2023-05-01T06:10:17;2.07;;;1.97;;
9526;SDS011;4802;51.494;6.770;2023-05-01T06:12:46;4.10;;;2.80;;
9526;SDS011;4802;51.494;6.770;2023-05-01T06:15:27;1.63;;;1.53;;
9526;SDS011;4802;51.494;6.770;2023-05-01T06:17:58;2.40;;;1.90;;
9526;SDS011;4802;51.494;6.770;2023-05-01T06:20:28;3.60;;;2.73;;
9526;SDS011;4802;51.494;6.770;2023-05-01T06:22:58;2.73;;;2.50;;
9526;SDS011;4802;51.494;6.770;2023-05-01T06:25:26;1.73;;;1.63;;
9526;SDS011;4802;51.494;6.770;2023-05-01T06:27:55;2.07;;;1.97;;
9526;SDS011;4802;51.494;6.770;2023-05-01T06:30:24;2.20;;;2.10;;
9526;SDS011;4802;51.494;6.770;2023-05-01T06:32:53;4.17;;;2.83;;
9526;SDS011;4802;51.494;6.770;2023-05-01T06:35:24;2.63;;;2.43;;
9526;SDS011;4802;51.494;6.770;2023-05-01T06:37:53;5.33;;;2.57;;
9526;SDS011;4802;51.494;6.770;2023-05-01T06:40:24;2.80;;;1.60;;
9526;SDS011;4802;51.494;6.770;2023-05-01T06:42:53;7.43;;;3.13;;
9526;SDS011;4802;51.494;6.770;2023-05-01T06:45:22;10.53;;;3.17;;
9526;SDS011;4802;51.494;6.770;2023-05-01T06:47:51;2.40;;;2.20;;
9526;SDS011;4802;51.494;6.770;2023-05-01T06:50:21;4.27;;;1.67;;
9526;SDS011;4802;51.494;6.770;2023-05-01T06:52:51;14.87;;;2.30;;
9526;SDS011;4802;51.494;6.770;2023-05-01T06:55:20;2.13;;;2.03;;
9526;SDS011;4802;51.494;6.770;2023-05-01T06:57:49;2.57;;;2.37;;
9526;SDS011;4802;51.494;6.770;2023-05-01T07:00:19;3.17;;;2.10;;
9526;SDS011;4802;51.494;6.770;2023-05-01T07:02:48;2.60;;;2.40;;
9526;SDS011;4802;51.494;6.770;2023-05-01T07:05:17;3.37;;;2.70;;
9526;SDS011;4802;51.494;6.770;2023-05-01T07:07:46;2.40;;;2.20;;
9526;SDS011;4802;51.494;6.770;2023-05-01T07:10:28;4.00;;;2.50;;
9526;SDS011;4802;51.494;6.770;2023-05-01T07:12:58;2.30;;;2.10;;
9526;SDS011;4802;51.494;6.770;2023-05-01T07:15:28;2.67;;;1.80;;
9526;SDS011;4802;51.494;6.770;2023-05-01T07:17:57;1.17;;;0.93;;
9526;SDS011;4802;51.494;6.770;2023-05-01T07:20:28;2.07;;;1.47;;
9526;SDS011;4802;51.494;6.770;2023-05-01T07:22:58;2.13;;;1.87;;
9526;SDS011;4802;51.494;6.770;2023-05-01T07:25:29;1.63;;;1.53;;
9526;SDS011;4802;51.494;6.770;2023-05-01T07:27:58;0.87;;;0.87;;
9526;SDS011;4802;51.494;6.770;2023-05-01T07:30:30;0.97;;;0.97;;
9526;SDS011;4802;51.494;6.770;2023-05-01T07:32:59;4.63;;;1.10;;
9526;SDS011;4802;51.494;6.770;2023-05-01T07:35:28;0.83;;;0.83;;
9526;SDS011;4802;51.494;6.770;2023-05-01T07:37:58;1.20;;;1.17;;
9526;SDS011;4802;51.494;6.770;2023-05-01T07:40:28;1.23;;;0.90;;
9526;SDS011;4802;51.494;6.770;2023-05-01T07:43:01;1.20;;;1.07;;
9526;SDS011;4802;51.494;6.770;2023-05-01T07:45:30;0.67;;;0.67;;
9526;SDS011;4802;51.494;6.770;2023-05-01T07:48:00;1.67;;;1.47;;
9526;SDS011;4802;51.494;6.770;2023-05-01T07:50:30;1.33;;;1.23;;
9526;SDS011;4802;51.494;6.770;2023-05-01T07:53:01;0.90;;;0.87;;
9526;SDS011;4802;51.494;6.770;2023-05-01T07:55:31;3.00;;;1.63;;
9526;SDS011;4802;51.494;6.770;2023-05-01T07:58:01;1.53;;;1.43;;
9526;SDS011;4802;51.494;6.770;2023-05-01T08:00:30;1.47;;;1.37;;
9526;SDS011;4802;51.494;6.770;2023-05-01T08:03:00;0.60;;;0.60;;
9526;SDS011;4802;51.494;6.770;2023-05-01T08:05:29;0.70;;;0.70;;
9526;SDS011;4802;51.494;6.770;2023-05-01T08:07:58;0.80;;;0.80;;
9526;SDS011;4802;51.494;6.770;2023-05-01T08:10:27;5.90;;;0.93;;
9526;SDS011;4802;51.494;6.770;2023-05-01T08:12:58;1.90;;;1.03;;
9526;SDS011;4802;51.494;6.770;2023-05-01T08:15:27;2.00;;;1.90;;
9526;SDS011;4802;51.494;6.770;2023-05-01T08:17:56;1.63;;;1.33;;
9526;SDS011;4802;51.494;6.770;2023-05-01T08:20:26;1.03;;;1.03;;
9526;SDS011;4802;51.494;6.770;2023-05-01T08:22:56;1.60;;;1.17;;
9526;SDS011;4802;51.494;6.770;2023-05-01T08:25:25;1.00;;;1.00;;
9526;SDS011;4802;51.494;6.770;2023-05-01T08:27:55;1.60;;;1.17;;
9526;SDS011;4802;51.494;6.770;2023-05-01T08:30:26;1.20;;;1.10;;
9526;SDS011;4802;51.494;6.770;2023-05-01T08:32:55;1.30;;;1.00;;
9526;SDS011;4802;51.494;6.770;2023-05-01T08:35:24;2.27;;;1.23;;
9526;SDS011;4802;51.494;6.770;2023-05-01T08:37:53;1.10;;;0.93;;
9526;SDS011;4802;51.494;6.770;2023-05-01T08:40:24;2.13;;;2.03;;
9526;SDS011;4802;51.494;6.770;2023-05-01T08:42:53;2.23;;;1.03;;
9526;SDS011;4802;51.494;6.770;2023-05-01T08:45:22;1.40;;;1.30;;
9526;SDS011;4802;51.494;6.770;2023-05-01T08:47:54;1.30;;;1.20;;
9526;SDS011;4802;51.494;6.770;2023-05-01T08:50:23;2.53;;;2.20;;
9526;SDS011;4802;51.494;6.770;2023-05-01T08:52:54;3.90;;;1.73;;
9526;SDS011;4802;51.494;6.770;2023-05-01T08:55:25;6.00;;;1.23;;
9526;SDS011;4802;51.494;6.770;2023-05-01T08:57:54;2.43;;;1.70;;
9526;SDS011;4802;51.494;6.770;2023-05-01T09:00:25;3.63;;;1.73;;
9526;SDS011;4802;51.494;6.770;2023-05-01T09:02:55;4.30;;;1.90;;
9526;SDS011;4802;51.494;6.770;2023-05-01T09:05:30;7.13;;;3.03;;
9526;SDS011;4802;51.494;6.770;2023-05-01T09:07:59;6.33;;;3.17;;
9526;SDS011;4802;51.494;6.770;2023-05-01T09:10:28;4.83;;;2.70;;
9526;SDS011;4802;51.494;6.770;2023-05-01T09:12:59;9.53;;;2.53;;
9526;SDS011;4802;51.494;6.770;2023-05-01T09:15:30;4.97;;;2.07;;
9526;SDS011;4802;51.494;6.770;2023-05-01T09:18:04;1.60;;;1.50;;
9526;SDS011;4802;51.494;6.770;2023-05-01T09:20:33;4.07;;;3.00;;
9526;SDS011;4802;51.494;6.770;2023-05-01T09:23:04;3.00;;;2.10;;
9526;SDS011;4802;51.494;6.770;2023-05-01T09:25:34;6.13;;;4.40;;
9526;SDS011;4802;51.494;6.770;2023-05-01T09:28:03;3.50;;;2.23;;
9526;SDS011;4802;51.494;6.770;2023-05-01T09:30:33;5.97;;;2.67;;
9526;SDS011;4802;51.494;6.770;2023-05-01T09:33:08;2.80;;;1.90;;
9526;SDS011;4802;51.494;6.770;2023-05-01T09:35:47;6.60;;;2.47;;
9526;SDS011;4802;51.494;6.770;2023-05-01T09:38:18;5.00;;;2.77;;
9526;SDS011;4802;51.494;6.770;2023-05-01T09:40:47;3.47;;;2.40;;
9526;SDS011;4802;51.494;6.770;2023-05-01T09:43:23;2.13;;;1.93;;
9526;SDS011;4802;51.494;6.770;2023-05-01T09:45:59;2.77;;;2.57;;
9526;SDS011;4802;51.494;6.770;2023-05-01T09:48:32;5.50;;;2.60;;
9526;SDS011;4802;51.494;6.770;2023-05-01T09:51:21;2.90;;;2.10;;
9526;SDS011;4802;51.494;6.770;2023-05-01T09:53:53;2.73;;;2.13;;
9526;SDS011;4802;51.494;6.770;2023-05-01T09:56:24;3.87;;;2.07;;
9526;SDS011;4802;51.494;6.770;2023-05-01T09:58:54;2.47;;;2.27;;
9526;SDS011;4802;51.494;6.770;2023-05-01T10:04:09;2.53;;;1.50;;
9526;SDS011;4802;51.494;6.770;2023-05-01T10:06:39;2.97;;;1.50;;
9526;SDS011;4802;51.494;6.770;2023-05-01T10:09:09;5.93;;;2.60;;
9526;SDS011;4802;51.494;6.770;2023-05-01T10:11:46;3.10;;;1.87;;
9526;SDS011;4802;51.494;6.770;2023-05-01T10:14:19;2.30;;;1.80;;
9526;SDS011;4802;51.494;6.770;2023-05-01T10:16:56;4.20;;;1.37;;
9526;SDS011;4802;51.494;6.770;2023-05-01T10:19:28;1.60;;;1.47;;
9526;SDS011;4802;51.494;6.770;2023-05-01T10:22:39;2.50;;;1.87;;
9526;SDS011;4802;51.494;6.770;2023-05-01T10:24:59;1.30;;;1.20;;
9526;SDS011;4802;51.494;6.770;2023-05-01T10:27:30;2.17;;;1.53;;
9526;SDS011;4802;51.494;6.770;2023-05-01T10:29:59;2.40;;;1.50;;
9526;SDS011;4802;51.494;6.770;2023-05-01T10:32:31;1.00;;;1.00;;
9526;SDS011;4802;51.494;6.770;2023-05-01T10:35:13;1.40;;;1.30;;
9526;SDS011;4802;51.494;6.770;2023-05-01T10:37:44;3.73;;;1.27;;
9526;SDS011;4802;51.494;6.770;2023-05-01T10:43:15;1.97;;;1.87;;
9526;SDS011;4802;51.494;6.770;2023-05-01T10:45:45;3.60;;;1.83;;
9526;SDS011;4802;51.494;6.770;2023-05-01T10:51:14;1.40;;;1.30;;
9526;SDS011;4802;51.494;6.770;2023-05-01T10:53:46;1.33;;;1.00;;
9526;SDS011;4802;51.494;6.770;2023-05-01T10:59:03;1.33;;;1.20;;
9526;SDS011;4802;51.494;6.770;2023-05-01T11:01:32;2.03;;;1.60;;
9526;SDS011;4802;51.494;6.770;2023-05-01T11:04:44;1.10;;;1.03;;
9526;SDS011;4802;51.494;6.770;2023-05-01T11:07:23;1.27;;;1.23;;
9526;SDS011;4802;51.494;6.770;2023-05-01T11:09:54;0.80;;;0.80;;
9526;SDS011;4802;51.494;6.770;2023-05-01T11:12:47;1.63;;;1.03;;
9526;SDS011;4802;51.494;6.770;2023-05-01T11:15:26;3.70;;;1.70;;
9526;SDS011;4802;51.494;6.770;2023-05-01T11:17:56;1.40;;;1.30;;
9526;SDS011;4802;51.494;6.770;2023-05-01T11:20:44;1.97;;;1.30;;
9526;SDS011;4802;51.494;6.770;2023-05-01T11:23:21;4.97;;;2.20;;
9526;SDS011;4802;51.494;6.770;2023-05-01T11:26:01;1.30;;;1.30;;
9526;SDS011;4802;51.494;6.770;2023-05-01T11:28:35;1.40;;;1.30;;
9526;SDS011;4802;51.494;6.770;2023-05-01T11:31:15;2.87;;;2.30;;
9526;SDS011;4802;51.494;6.770;2023-05-01T11:33:48;2.03;;;1.93;;
9526;SDS011;4802;51.494;6.770;2023-05-01T11:36:20;1.40;;;1.30;;
9526;SDS011;4802;51.494;6.770;2023-05-01T11:39:15;1.60;;;1.50;;
9526;SDS011;4802;51.494;6.770;2023-05-01T11:41:48;1.33;;;1.23;;
9526;SDS011;4802;51.494;6.770;2023-05-01T11:44:17;1.67;;;1.57;;
9526;SDS011;4802;51.494;6.770;2023-05-01T11:46:48;0.90;;;0.90;;
9526;SDS011;4802;51.494;6.770;2023-05-01T11:49:57;1.63;;;1.00;;
9526;SDS011;4802;51.494;6.770;2023-05-01T11:52:27;1.03;;;1.00;;
9526;SDS011;4802;51.494;6.770;2023-05-01T11:55:00;1.17;;;1.07;;
9526;SDS011;4802;51.494;6.770;2023-05-01T11:57:32;1.37;;;1.27;;
9526;SDS011;4802;51.494;6.770;2023-05-01T12:00:13;1.70;;;1.23;;
9526;SDS011;4802;51.494;6.770;2023-05-01T12:02:55;2.87;;;1.50;;
9526;SDS011;4802;51.494;6.770;2023-05-01T12:05:35;0.90;;;0.90;;
9526;SDS011;4802;51.494;6.770;2023-05-01T12:08:08;0.60;;;0.60;;
9526;SDS011;4802;51.494;6.770;2023-05-01T12:10:40;0.80;;;0.80;;
9526;SDS011;4802;51.494;6.770;2023-05-01T12:13:09;0.97;;;0.87;;
9526;SDS011;4802;51.494;6.770;2023-05-01T12:15:40;1.30;;;1.30;;
9526;SDS011;4802;51.494;6.770;2023-05-01T12:18:10;0.80;;;0.80;;
9526;SDS011;4802;51.494;6.770;2023-05-01T12:20:42;0.83;;;0.83;;
9526;SDS011;4802;51.494;6.770;2023-05-01T12:23:13;0.50;;;0.50;;
9526;SDS011;4802;51.494;6.770;2023-05-01T12:25:46;1.07;;;1.07;;
9526;SDS011;4802;51.494;6.770;2023-05-01T12:28:17;0.70;;;0.70;;
9526;SDS011;4802;51.494;6.770;2023-05-01T12:30:47;2.40;;;1.30;;
9526;SDS011;4802;51.494;6.770;2023-05-01T12:33:17;3.60;;;1.43;;
9526;SDS011;4802;51.494;6.770;2023-05-01T12:35:51;2.93;;;1.33;;
9526;SDS011;4802;51.494;6.770;2023-05-01T12:38:22;6.23;;;2.53;;
9526;SDS011;4802;51.494;6.770;2023-05-01T12:43:42;0.80;;;0.80;;
9526;SDS011;4802;51.494;6.770;2023-05-01T12:46:17;0.87;;;0.87;;
9526;SDS011;4802;51.494;6.770;2023-05-01T12:48:49;0.80;;;0.80;;
9526;SDS011;4802;51.494;6.770;2023-05-01T12:51:31;1.47;;;0.70;;
9526;SDS011;4802;51.494;6.770;2023-05-01T12:54:02;3.13;;;0.83;;
9526;SDS011;4802;51.494;6.770;2023-05-01T12:56:37;2.10;;;1.00;;
9526;SDS011;4802;51.494;6.770;2023-05-01T12:59:14;0.80;;;0.80;;
9526;SDS011;4802;51.494;6.770;2023-05-01T13:01:47;0.70;;;0.70;;
9526;SDS011;4802;51.494;6.770;2023-05-01T13:04:20;1.33;;;1.13;;
9526;SDS011;4802;51.494;6.770;2023-05-01T13:06:51;0.40;;;0.33;;
9526;SDS011;4802;51.494;6.770;2023-05-01T13:09:23;0.57;;;0.57;;
9526;SDS011;4802;51.494;6.770;2023-05-01T13:11:56;1.00;;;1.00;;
9526;SDS011;4802;51.494;6.770;2023-05-01T13:14:28;0.90;;;0.90;;
9526;SDS011;4802;51.494;6.770;2023-05-01T13:16:59;0.70;;;0.60;;
9526;SDS011;4802;51.494;6.770;2023-05-01T13:19:29;0.93;;;0.93;;
9526;SDS011;4802;51.494;6.770;2023-05-01T13:22:02;2.20;;;0.87;;
9526;SDS011;4802;51.494;6.770;2023-05-01T13:24:34;1.43;;;1.00;;
9526;SDS011;4802;51.494;6.770;2023-05-01T13:27:04;3.03;;;1.40;;
9526;SDS011;4802;51.494;6.770;2023-05-01T13:29:37;1.47;;;0.90;;
9526;SDS011;4802;51.494;6.770;2023-05-01T13:32:08;0.70;;;0.70;;
9526;SDS011;4802;51.494;6.770;2023-05-01T13:34:40;0.90;;;0.87;;
9526;SDS011;4802;51.494;6.770;2023-05-01T13:37:10;4.77;;;2.67;;
9526;SDS011;4802;51.494;6.770;2023-05-01T13:39:40;3.43;;;3.00;;
9526;SDS011;4802;51.494;6.770;2023-05-01T13:42:10;3.63;;;3.07;;
9526;SDS011;4802;51.494;6.770;2023-05-01T13:44:43;1.00;;;1.00;;
9526;SDS011;4802;51.494;6.770;2023-05-01T13:47:15;2.40;;;1.03;;
9526;SDS011;4802;51.494;6.770;2023-05-01T13:49:44;1.73;;;1.63;;
9526;SDS011;4802;51.494;6.770;2023-05-01T13:52:15;1.80;;;1.60;;
9526;SDS011;4802;51.494;6.770;2023-05-01T13:54:45;8.53;;;4.83;;
9526;SDS011;4802;51.494;6.770;2023-05-01T13:57:15;1.53;;;1.43;;
9526;SDS011;4802;51.494;6.770;2023-05-01T13:59:50;1.13;;;1.03;;
9526;SDS011;4802;51.494;6.770;2023-05-01T14:02:23;1.97;;;1.23;;
9526;SDS011;4802;51.494;6.770;2023-05-01T14:04:55;3.13;;;1.27;;
9526;SDS011;4802;51.494;6.770;2023-05-01T14:07:26;1.57;;;1.47;;
9526;SDS011;4802;51.494;6.770;2023-05-01T14:09:56;1.93;;;1.83;;
9526;SDS011;4802;51.494;6.770;2023-05-01T14:12:28;1.80;;;1.70;;
9526;SDS011;4802;51.494;6.770;2023-05-01T14:15:13;3.70;;;3.33;;
9526;SDS011;4802;51.494;6.770;2023-05-01T14:17:57;5.10;;;2.37;;
9526;SDS011;4802;51.494;6.770;2023-05-01T14:20:54;2.60;;;1.80;;
9526;SDS011;4802;51.494;6.770;2023-05-01T14:23:38;2.77;;;2.57;;
9526;SDS011;4802;51.494;6.770;2023-05-01T14:26:35;2.70;;;1.77;;
9526;SDS011;4802;51.494;6.770;2023-05-01T14:29:24;3.97;;;1.83;;
9526;SDS011;4802;51.494;6.770;2023-05-01T15:24:23;1.33;;;1.33;;
9526;SDS011;4802;51.494;6.770;2023-05-01T15:26:54;4.83;;;2.23;;
9526;SDS011;4802;51.494;6.770;2023-05-01T23:07:27;7.93;;;7.07;;
9526;SDS011;4802;51.494;6.770;2023-05-01T23:10:10;11.30;;;8.43;;
9526;SDS011;4802;51.494;6.770;2023-05-01T23:12:43;10.80;;;7.70;;
9526;SDS011;4802;51.494;6.770;2023-05-01T23:15:13;12.33;;;7.87;;
9526;SDS011;4802;51.494;6.770;2023-05-01T23:17:59;14.07;;;7.50;;
9526;SDS011;4802;51.494;6.770;2023-05-01T23:20:29;13.47;;;7.97;;
9526;SDS011;4802;51.494;6.770;2023-05-01T23:23:12;6.87;;;5.60;;
9526;SDS011;4802;51.494;6.770;2023-05-01T23:25:43;7.20;;;6.60;;
9526;SDS011;4802;51.494;6.770;2023-05-01T23:28:19;9.00;;;7.10;;
9526;SDS011;4802;51.494;6.770;2023-05-01T23:30:52;14.73;;;10.40;;
9526;SDS011;4802;51.494;6.770;2023-05-01T23:33:25;16.33;;;8.33;;
9526;SDS011;4802;51.494;6.770;2023-05-01T23:35:56;16.43;;;8.83;;
9526;SDS011;4802;51.494;6.770;2023-05-01T23:38:38;12.80;;;9.73;;
9526;SDS011;4802;51.494;6.770;2023-05-01T23:41:07;12.93;;;9.80;;
9526;SDS011;4802;51.494;6.770;2023-05-01T23:43:39;12.03;;;9.40;;
9526;SDS011;4802;51.494;6.770;2023-05-01T23:46:12;13.37;;;8.97;;
9526;SDS011;4802;51.494;6.770;2023-05-01T23:48:43;15.17;;;8.70;;
9526;SDS011;4802;51.494;6.770;2023-05-01T23:51:14;16.80;;;7.50;;
9526;SDS011;4802;51.494;6.770;2023-05-01T23:53:48;23.30;;;11.20;;
9526;SDS011;4802;51.494;6.770;2023-05-01T23:56:18;13.07;;;10.17;;
9526;SDS011;4802;51.494;6.770;2023-05-01T23:58:47;17.63;;;11.40;;
